Stony Battery, Virginia
Current Conditions -  °F | °C
As of 5:35 PM on Wednesday 22 Oct 2014 (Local Time) from KMKJ Reporting Station
Overcast Overcast  
Wind Chill: 42°   Ceiling: 2200
Heat Index: 47°   Visibility: 10mi
Dew Point: 39°   Wind: 10mph
Humidity: 75%   Direction: 320°NW
Pressure: 30.17"   Gusts: 18mph
Location:  36.8339°N, 81.5195°W
Report Text: KMKJ 222135Z AUTO 32009G16KT 10SM OVC022 08/04 A3017 RMK AO2 T00820040
Loading
Personal Weather Stations






























Interactive Weather Map
Tropical Storm Tracking
New forecast layout! Learn more

10-Day Weather Forecast

Advertisements
Track Severe Weather on mobile